createdAt,value
2019-04-30T00:00:47.014Z,17.70
2019-04-30T00:03:26.249Z,14.77
2019-04-30T00:05:57.312Z,14.83
2019-04-30T00:08:25.787Z,14.30
2019-04-30T00:10:53.023Z,14.97
2019-04-30T00:13:21.992Z,16.23
2019-04-30T00:15:52.787Z,17.87
2019-04-30T00:18:19.757Z,16.93
2019-04-30T00:20:48.666Z,16.23
2019-04-30T00:23:18.079Z,17.80
2019-04-30T00:25:46.463Z,18.47
2019-04-30T00:28:15.623Z,17.07
2019-04-30T00:30:47.652Z,16.43
2019-04-30T00:33:15.278Z,18.77
2019-04-30T00:35:42.250Z,19.20
2019-04-30T00:38:11.172Z,17.40
2019-04-30T00:40:40.110Z,16.03
2019-04-30T00:43:09.191Z,16.30
2019-04-30T00:45:40.072Z,18.10
2019-04-30T00:48:06.928Z,16.63
2019-04-30T00:50:37.185Z,16.00
2019-04-30T00:53:11.802Z,18.93
2019-04-30T00:55:38.142Z,17.90
2019-04-30T00:58:02.709Z,16.93
2019-04-30T01:00:31.660Z,16.73
2019-04-30T01:03:10.180Z,18.80
2019-04-30T01:05:39.667Z,17.93
2019-04-30T01:08:08.032Z,22.87
2019-04-30T01:10:36.980Z,18.30
2019-04-30T01:13:10.195Z,17.27
2019-04-30T01:15:34.934Z,18.93
2019-04-30T01:18:03.860Z,16.33
2019-04-30T01:20:33.012Z,17.13
2019-04-30T01:23:02.944Z,17.23
2019-04-30T01:25:30.632Z,18.43
2019-04-30T01:27:59.583Z,20.63
2019-04-30T01:30:28.567Z,18.77
2019-04-30T01:32:58.807Z,20.07
2019-04-30T01:35:29.101Z,19.53
2019-04-30T01:37:55.283Z,19.33
2019-04-30T01:40:24.167Z,19.53
2019-04-30T01:42:53.088Z,24.07
2019-04-30T01:45:23.159Z,21.87
2019-04-30T01:47:50.914Z,20.03
2019-04-30T01:50:19.848Z,19.93
2019-04-30T01:52:54.508Z,20.47
2019-04-30T01:55:45.605Z,18.27
2019-04-30T01:58:45.602Z,20.07
2019-04-30T02:01:18.995Z,24.23
2019-04-30T02:03:48.601Z,22.73
2019-04-30T02:06:15.823Z,23.17
2019-04-30T02:08:44.699Z,21.67
2019-04-30T02:11:13.596Z,22.77
2019-04-30T02:13:42.480Z,21.80
2019-04-30T02:16:11.407Z,23.27
2019-04-30T02:18:40.313Z,26.80
2019-04-30T02:21:11.444Z,24.77
2019-04-30T02:23:39.221Z,22.07
2019-04-30T02:26:08.645Z,22.63
2019-04-30T02:28:35.971Z,23.70
2019-04-30T02:31:05.321Z,22.53
2019-04-30T02:33:34.217Z,23.17
2019-04-30T02:36:24.979Z,24.93
2019-04-30T02:38:54.923Z,23.40
2019-04-30T02:41:23.819Z,24.53
2019-04-30T02:43:52.912Z,23.43
2019-04-30T02:46:22.798Z,23.30
2019-04-30T02:48:51.773Z,26.13
2019-04-30T02:51:22.944Z,24.83
2019-04-30T02:54:10.011Z,23.67
2019-04-30T02:56:40.008Z,23.73
2019-04-30T02:59:09.885Z,28.97
2019-04-30T03:01:36.455Z,27.40
2019-04-30T03:04:05.401Z,28.77
2019-04-30T03:06:34.296Z,25.30
2019-04-30T03:09:03.226Z,26.73
2019-04-30T03:11:32.139Z,26.57
2019-04-30T03:14:01.042Z,27.20
2019-04-30T03:16:41.976Z,26.20
2019-04-30T03:19:40.318Z,29.13
2019-04-30T03:22:15.048Z,28.13
2019-04-30T03:24:43.954Z,27.03
2019-04-30T03:27:12.883Z,26.77
2019-04-30T03:29:41.784Z,25.60
2019-04-30T03:32:13.556Z,25.03
2019-04-30T03:34:42.179Z,23.87
2019-04-30T03:37:10.029Z,26.33
2019-04-30T03:39:39.957Z,25.07
2019-04-30T03:42:06.441Z,22.63
2019-04-30T03:44:35.346Z,23.07
2019-04-30T03:47:04.273Z,22.43
2019-04-30T03:49:33.206Z,22.83
2019-04-30T03:52:02.126Z,23.00
2019-04-30T03:54:31.063Z,24.47
2019-04-30T03:57:00.826Z,22.60
2019-04-30T03:59:30.084Z,24.50
2019-04-30T04:02:05.875Z,22.73
2019-04-30T04:05:02.692Z,21.93
2019-04-30T04:07:44.619Z,21.77
2019-04-30T04:10:19.653Z,24.50
2019-04-30T04:12:49.838Z,24.57
2019-04-30T04:15:16.792Z,24.83
2019-04-30T04:17:45.712Z,22.40
2019-04-30T04:20:14.679Z,23.27
2019-04-30T04:22:43.525Z,23.30
2019-04-30T04:25:13.275Z,24.03
2019-04-30T04:27:41.336Z,25.13
2019-04-30T04:30:10.802Z,24.77
2019-04-30T04:32:40.649Z,22.37
2019-04-30T04:35:12.216Z,25.90
2019-04-30T04:37:39.359Z,24.67
2019-04-30T04:40:06.023Z,23.30
2019-04-30T04:42:34.992Z,25.40
2019-04-30T04:45:03.842Z,28.00
2019-04-30T04:47:32.762Z,23.93
2019-04-30T04:50:01.725Z,26.23
2019-04-30T04:52:31.412Z,25.50
2019-04-30T04:55:00.329Z,23.03
2019-04-30T04:57:30.355Z,24.03
2019-04-30T05:00:02.406Z,26.83
2019-04-30T05:02:32.097Z,27.03
2019-04-30T05:04:57.251Z,22.60
2019-04-30T05:07:26.194Z,25.93
2019-04-30T05:09:55.107Z,22.23
2019-04-30T05:12:23.998Z,23.97
2019-04-30T05:14:52.942Z,25.07
2019-04-30T05:17:21.830Z,24.83
2019-04-30T05:19:50.722Z,23.77
2019-04-30T05:22:19.626Z,23.73
2019-04-30T05:24:48.907Z,24.07
2019-04-30T05:27:19.719Z,23.80
2019-04-30T05:29:46.490Z,22.53
2019-04-30T05:32:15.378Z,20.77
2019-04-30T05:34:44.287Z,25.77
2019-04-30T05:37:13.178Z,23.00
2019-04-30T05:39:42.136Z,22.90
2019-04-30T05:42:11.029Z,27.00
2019-04-30T05:44:39.943Z,20.83
2019-04-30T05:47:09.332Z,25.17
2019-04-30T05:49:38.866Z,24.50
2019-04-30T05:52:06.687Z,25.17
2019-04-30T05:54:35.661Z,23.37
2019-04-30T05:57:04.593Z,23.83
2019-04-30T05:59:33.584Z,23.37
2019-04-30T06:02:02.437Z,23.37
2019-04-30T06:04:31.395Z,22.30
2019-04-30T06:07:00.432Z,25.25
2019-04-30T06:09:48.639Z,22.43
2019-04-30T06:12:42.784Z,22.37
2019-04-30T06:15:29.066Z,26.50
2019-04-30T06:18:01.741Z,21.47
2019-04-30T06:20:25.530Z,25.48
2019-04-30T06:22:54.409Z,22.63
2019-04-30T06:25:31.120Z,24.73
2019-04-30T06:27:52.241Z,23.40
2019-04-30T06:30:21.167Z,25.33
2019-04-30T06:32:50.058Z,22.60
2019-04-30T06:35:19.415Z,23.53
2019-04-30T06:37:48.947Z,25.77
2019-04-30T06:40:16.883Z,25.67
2019-04-30T06:42:45.778Z,25.23
2019-04-30T06:45:14.718Z,25.53
2019-04-30T06:47:43.642Z,23.60
2019-04-30T06:50:12.536Z,26.80
2019-04-30T06:52:41.442Z,25.73
2019-04-30T06:55:10.360Z,24.47
2019-04-30T06:57:39.288Z,25.97
2019-04-30T07:00:09.826Z,26.48
2019-04-30T07:02:39.172Z,27.53
2019-04-30T07:05:06.316Z,24.43
2019-04-30T07:07:38.714Z,27.77
2019-04-30T07:10:20.416Z,25.83
2019-04-30T07:13:11.345Z,26.10
2019-04-30T07:15:45.164Z,24.83
2019-04-30T07:18:12.076Z,30.70
2019-04-30T07:21:15.796Z,28.80
2019-04-30T07:23:28.457Z,25.80
2019-04-30T07:26:00.013Z,28.60
2019-04-30T07:28:43.739Z,26.17
2019-04-30T07:31:11.730Z,26.80
2019-04-30T07:33:31.104Z,26.03
2019-04-30T07:36:16.590Z,29.47
2019-04-30T07:39:00.717Z,30.88
2019-04-30T07:42:02.131Z,25.60
2019-04-30T07:44:56.928Z,30.03
2019-04-30T07:47:32.478Z,32.10
2019-04-30T07:50:10.591Z,30.17
2019-04-30T07:55:51.828Z,27.73
2019-04-30T07:58:42.986Z,29.20
2019-04-30T08:01:29.542Z,29.87
2019-04-30T08:04:20.854Z,30.20
2019-04-30T08:06:54.781Z,30.27
2019-04-30T08:09:39.814Z,36.30
2019-04-30T08:12:09.588Z,29.50
2019-04-30T08:14:39.107Z,31.70
2019-04-30T08:17:08.873Z,30.13
2019-04-30T08:20:20.686Z,31.27
2019-04-30T08:22:50.501Z,31.17
2019-04-30T08:25:28.902Z,34.03
2019-04-30T08:28:05.933Z,34.00
2019-04-30T08:30:40.908Z,31.70
2019-04-30T08:33:19.643Z,32.97
2019-04-30T08:35:49.878Z,27.50
2019-04-30T08:38:35.244Z,31.77
2019-04-30T08:41:21.853Z,28.93
2019-04-30T08:44:14.552Z,30.37
2019-04-30T08:49:50.220Z,30.70
2019-04-30T08:52:23.132Z,30.20
2019-04-30T08:55:12.721Z,28.33
2019-04-30T08:57:40.419Z,35.77
2019-04-30T09:00:34.508Z,32.83
2019-04-30T09:03:12.203Z,32.53
2019-04-30T09:06:09.368Z,34.73
2019-04-30T09:08:48.985Z,30.50
2019-04-30T09:11:25.226Z,30.03
2019-04-30T09:13:50.897Z,30.33
2019-04-30T09:16:23.788Z,32.03
2019-04-30T09:18:50.727Z,29.97
2019-04-30T09:21:23.921Z,33.43
2019-04-30T09:23:59.638Z,32.90
2019-04-30T09:26:33.859Z,34.70
2019-04-30T09:29:29.398Z,36.80
2019-04-30T09:31:59.418Z,32.87
2019-04-30T09:34:32.293Z,32.43
2019-04-30T09:37:01.799Z,33.10
2019-04-30T09:39:46.496Z,29.37
2019-04-30T09:42:20.083Z,29.67
2019-04-30T09:44:49.706Z,32.97
2019-04-30T09:47:38.114Z,27.47
2019-04-30T09:50:42.346Z,29.07
2019-04-30T09:53:00.280Z,33.77
2019-04-30T09:55:29.209Z,34.98
2019-04-30T09:58:16.856Z,29.83
2019-04-30T10:00:46.343Z,33.23
2019-04-30T10:03:20.095Z,30.70
2019-04-30T10:05:48.954Z,30.17
2019-04-30T10:08:18.901Z,29.80
2019-04-30T10:11:09.750Z,30.07
2019-04-30T10:13:44.484Z,31.17
2019-04-30T10:16:44.778Z,30.97
2019-04-30T10:19:16.058Z,30.80
2019-04-30T10:21:49.891Z,27.30
2019-04-30T10:24:37.104Z,27.30
2019-04-30T10:27:12.924Z,28.93
2019-04-30T10:29:49.274Z,31.50
2019-04-30T10:32:19.236Z,28.23
2019-04-30T10:35:24.954Z,28.47
2019-04-30T10:37:45.728Z,28.23
2019-04-30T10:40:28.738Z,27.07
2019-04-30T10:43:20.823Z,24.17
2019-04-30T10:45:52.030Z,25.27
2019-04-30T10:48:23.583Z,21.80
2019-04-30T10:50:55.439Z,26.60
2019-04-30T10:53:33.033Z,21.97
2019-04-30T10:56:19.183Z,24.70
2019-04-30T10:58:46.699Z,23.70
2019-04-30T11:01:19.333Z,24.80
2019-04-30T11:03:50.688Z,25.23
2019-04-30T11:08:57.506Z,23.80
2019-04-30T11:09:26.749Z,22.50
2019-04-30T11:12:07.131Z,25.00
2019-04-30T11:14:44.993Z,21.97
2019-04-30T11:17:22.062Z,23.57
2019-04-30T11:19:54.196Z,24.90
2019-04-30T11:22:27.665Z,21.80
2019-04-30T11:25:00.126Z,21.13
2019-04-30T11:27:26.982Z,21.37
2019-04-30T11:30:03.711Z,22.57
2019-04-30T11:32:32.806Z,28.23
2019-04-30T11:35:07.350Z,22.00
2019-04-30T11:37:42.213Z,23.47
2019-04-30T11:40:11.391Z,22.30
2019-04-30T11:42:52.861Z,22.83
2019-04-30T11:45:50.912Z,20.40
2019-04-30T11:48:22.481Z,20.40
2019-04-30T11:51:06.563Z,21.13
2019-04-30T11:53:36.176Z,19.57
2019-04-30T11:56:05.826Z,21.87
2019-04-30T11:58:55.815Z,21.47
2019-04-30T12:01:24.889Z,19.30
2019-04-30T12:03:59.931Z,20.00
2019-04-30T12:06:37.405Z,19.53
2019-04-30T12:09:35.160Z,22.50
2019-04-30T12:12:09.152Z,18.87
2019-04-30T12:14:41.214Z,22.00
2019-04-30T12:17:13.810Z,22.42
2019-04-30T12:19:46.167Z,19.30
2019-04-30T12:22:20.217Z,19.83
2019-04-30T12:25:05.278Z,19.87
2019-04-30T12:27:32.778Z,18.63
2019-04-30T12:30:15.660Z,18.00
2019-04-30T12:32:45.824Z,17.77
2019-04-30T12:35:23.567Z,17.70
2019-04-30T12:38:09.783Z,20.23
2019-04-30T12:40:40.566Z,20.52
2019-04-30T12:43:15.423Z,17.77
2019-04-30T12:45:46.112Z,17.57
2019-04-30T12:48:34.519Z,20.65
2019-04-30T12:51:28.282Z,19.00
2019-04-30T12:54:21.429Z,18.10
2019-04-30T12:57:02.526Z,17.63
2019-04-30T12:59:47.045Z,17.53
2019-04-30T13:02:18.993Z,18.70
2019-04-30T13:07:59.676Z,17.40
2019-04-30T13:10:28.979Z,17.90
2019-04-30T13:12:57.955Z,19.07
2019-04-30T13:15:45.989Z,18.57
2019-04-30T13:18:19.519Z,17.30
2019-04-30T13:20:58.870Z,18.37
2019-04-30T13:23:25.458Z,21.65
2019-04-30T13:25:55.459Z,21.20
2019-04-30T13:28:35.646Z,19.23
2019-04-30T13:31:06.842Z,18.90
2019-04-30T13:33:58.108Z,21.17
2019-04-30T13:36:26.249Z,19.73
2019-04-30T13:39:10.622Z,18.67
2019-04-30T13:41:56.327Z,20.27
2019-04-30T13:44:31.572Z,19.00
2019-04-30T13:47:03.230Z,20.23
2019-04-30T13:49:33.558Z,20.97
2019-04-30T13:52:10.863Z,18.83
2019-04-30T13:54:40.004Z,20.07
2019-04-30T13:57:18.068Z,19.07
2019-04-30T13:59:51.614Z,18.90
2019-04-30T14:02:20.747Z,18.43
2019-04-30T14:04:57.126Z,17.90
2019-04-30T14:08:02.873Z,20.77
2019-04-30T14:10:42.056Z,18.13
2019-04-30T14:13:11.169Z,19.70
2019-04-30T14:15:44.268Z,19.70
2019-04-30T14:18:30.952Z,18.67
2019-04-30T14:21:09.994Z,18.13
2019-04-30T14:23:51.191Z,18.87
2019-04-30T14:26:39.889Z,19.70
2019-04-30T14:29:09.044Z,19.33
2019-04-30T14:31:45.313Z,18.93
2019-04-30T14:34:20.625Z,20.80
2019-04-30T14:36:51.030Z,19.87
2019-04-30T14:39:20.562Z,20.70
2019-04-30T14:41:53.176Z,20.50
2019-04-30T14:44:25.050Z,19.77
2019-04-30T14:47:16.565Z,20.30
2019-04-30T14:50:13.001Z,20.50
2019-04-30T14:52:56.427Z,20.77
2019-04-30T14:56:08.958Z,21.70
2019-04-30T14:58:56.228Z,20.30
2019-04-30T15:01:59.149Z,19.13
2019-04-30T15:05:38.865Z,18.60
2019-04-30T15:08:02.282Z,17.87
2019-04-30T15:10:35.130Z,17.67
2019-04-30T15:13:13.737Z,18.17
2019-04-30T15:15:46.326Z,18.23
2019-04-30T15:18:15.296Z,17.33
2019-04-30T15:20:44.850Z,19.80
2019-04-30T15:23:35.853Z,19.10
2019-04-30T15:26:08.599Z,20.02
2019-04-30T15:28:39.259Z,18.03
2019-04-30T15:31:13.634Z,19.13
2019-04-30T15:33:47.474Z,17.53
2019-04-30T15:36:42.710Z,17.40
2019-04-30T15:39:32.795Z,17.13
2019-04-30T15:42:02.324Z,16.77
2019-04-30T15:44:31.382Z,15.93
2019-04-30T15:47:00.660Z,16.67
2019-04-30T15:49:29.518Z,16.63
2019-04-30T15:51:58.615Z,17.67
2019-04-30T15:54:32.337Z,17.33
2019-04-30T15:59:46.621Z,15.67
2019-04-30T16:02:53.192Z,15.47
2019-04-30T16:05:31.122Z,15.17
2019-04-30T16:08:23.449Z,15.17
2019-04-30T16:11:20.014Z,14.00
2019-04-30T16:14:22.401Z,13.93
2019-04-30T16:16:56.786Z,13.70
2019-04-30T16:19:29.114Z,14.03
2019-04-30T16:21:58.011Z,14.43
2019-04-30T16:24:28.725Z,13.40
2019-04-30T16:26:55.951Z,14.53
2019-04-30T16:29:24.899Z,15.00
2019-04-30T16:31:53.799Z,16.00
2019-04-30T16:34:22.738Z,14.43
2019-04-30T16:36:51.676Z,13.50
2019-04-30T16:39:20.566Z,13.80
2019-04-30T16:41:49.836Z,13.30
2019-04-30T16:44:19.188Z,14.10
2019-04-30T16:46:47.327Z,16.00
2019-04-30T16:49:16.268Z,18.07
2019-04-30T16:51:45.205Z,14.30
2019-04-30T16:54:14.146Z,13.40
2019-04-30T16:56:43.053Z,14.90
2019-04-30T16:59:12.231Z,14.93
2019-04-30T17:01:41.147Z,13.77
2019-04-30T17:04:20.264Z,14.40
2019-04-30T17:06:54.670Z,14.43
2019-04-30T17:09:29.506Z,14.33
2019-04-30T17:12:01.155Z,14.20
2019-04-30T17:14:30.754Z,13.17
2019-04-30T17:16:59.763Z,14.17
2019-04-30T17:19:29.163Z,13.23
2019-04-30T17:21:57.212Z,13.43
2019-04-30T17:24:26.102Z,14.00
2019-04-30T17:26:55.044Z,13.87
2019-04-30T17:29:23.974Z,14.13
2019-04-30T17:31:52.918Z,15.95
2019-04-30T17:34:21.865Z,13.73
2019-04-30T17:36:50.771Z,12.77
2019-04-30T17:39:19.704Z,15.30
2019-04-30T17:41:48.731Z,13.63
2019-04-30T17:44:18.653Z,12.53
2019-04-30T17:46:46.593Z,13.20
2019-04-30T17:49:15.524Z,13.50
2019-04-30T17:51:44.444Z,13.87
2019-04-30T17:54:13.935Z,15.73
2019-04-30T17:56:44.493Z,13.77
2019-04-30T17:59:13.434Z,13.83
2019-04-30T18:01:43.386Z,13.63
2019-04-30T18:04:12.283Z,16.17
2019-04-30T18:06:41.217Z,13.70
2019-04-30T18:09:11.035Z,13.07
2019-04-30T18:11:39.636Z,14.07
2019-04-30T18:14:08.845Z,14.33
2019-04-30T18:16:38.697Z,14.73
2019-04-30T18:19:25.011Z,15.50
2019-04-30T18:21:59.656Z,13.93
2019-04-30T18:24:31.939Z,15.37
2019-04-30T18:27:04.687Z,13.23
2019-04-30T18:29:33.621Z,14.63
2019-04-30T18:32:02.548Z,13.97
2019-04-30T18:34:31.497Z,14.40
2019-04-30T18:37:00.415Z,16.25
2019-04-30T18:39:29.354Z,14.77
2019-04-30T18:41:58.269Z,13.90
2019-04-30T18:44:27.175Z,15.33
2019-04-30T18:46:56.095Z,13.90
2019-04-30T18:49:24.985Z,14.70
2019-04-30T18:51:53.909Z,17.35
2019-04-30T18:54:22.826Z,17.07
2019-04-30T18:56:51.783Z,14.57
2019-04-30T18:59:20.683Z,14.60
2019-04-30T19:01:49.597Z,14.57
2019-04-30T19:04:18.973Z,14.87
2019-04-30T19:06:47.431Z,15.33
2019-04-30T19:09:25.340Z,14.57
2019-04-30T19:12:11.183Z,14.87
2019-04-30T19:14:42.453Z,15.20
2019-04-30T19:17:22.786Z,15.37
2019-04-30T19:20:13.666Z,15.20
2019-04-30T19:22:42.520Z,15.17
2019-04-30T19:25:11.555Z,15.87
2019-04-30T19:27:40.390Z,16.13
2019-04-30T19:30:09.375Z,17.20
2019-04-30T19:32:39.042Z,16.37
2019-04-30T19:35:09.050Z,17.83
2019-04-30T19:37:38.576Z,17.47
2019-04-30T19:40:06.046Z,17.50
2019-04-30T19:42:34.937Z,26.97
2019-04-30T19:45:10.181Z,24.37
2019-04-30T19:47:33.064Z,22.80
2019-04-30T19:50:01.996Z,28.43
2019-04-30T19:52:30.958Z,21.03
2019-04-30T19:54:59.832Z,19.70
2019-04-30T19:57:28.773Z,18.70
2019-04-30T19:59:58.683Z,18.47
2019-04-30T20:02:26.653Z,19.13
2019-04-30T20:04:55.491Z,18.60
2019-04-30T20:07:24.421Z,16.90
2019-04-30T20:10:03.302Z,18.17
2019-04-30T20:12:22.251Z,18.70
2019-04-30T20:14:51.164Z,17.90
2019-04-30T20:17:20.147Z,17.83
2019-04-30T20:19:49.075Z,17.97
2019-04-30T20:22:19.610Z,19.33
2019-04-30T20:24:48.735Z,17.97
2019-04-30T20:27:15.855Z,21.13
2019-04-30T20:29:44.784Z,21.15
2019-04-30T20:32:13.711Z,19.20
2019-04-30T20:34:42.641Z,19.13
2019-04-30T20:37:11.540Z,21.55
2019-04-30T20:40:01.697Z,18.43
2019-04-30T20:42:30.606Z,17.87
2019-04-30T20:44:59.527Z,18.50
2019-04-30T20:47:30.021Z,17.23
2019-04-30T20:49:57.472Z,19.77
2019-04-30T20:52:26.327Z,21.30
2019-04-30T20:54:55.223Z,20.20
2019-04-30T20:57:24.225Z,18.93
2019-04-30T20:59:53.073Z,18.53
2019-04-30T21:02:22.009Z,19.50
2019-04-30T21:04:50.909Z,17.97
2019-04-30T21:07:19.859Z,19.27
2019-04-30T21:09:48.804Z,23.10
2019-04-30T21:12:18.765Z,17.93
2019-04-30T21:14:48.485Z,18.07
2019-04-30T21:17:15.554Z,18.80
2019-04-30T21:19:44.501Z,19.00
2019-04-30T21:22:13.410Z,20.27
2019-04-30T21:24:42.334Z,17.73
2019-04-30T21:27:11.287Z,20.40
2019-04-30T21:29:40.202Z,18.70
2019-04-30T21:32:15.645Z,20.30
2019-04-30T21:34:52.227Z,22.27
2019-04-30T21:37:21.160Z,19.10
2019-04-30T21:39:50.239Z,22.30
2019-04-30T21:42:19.053Z,20.50
2019-04-30T21:44:47.969Z,19.70
2019-04-30T21:47:16.900Z,18.53
2019-04-30T21:49:45.794Z,20.60
2019-04-30T21:52:14.732Z,22.27
2019-04-30T21:54:43.637Z,17.63
2019-04-30T21:57:12.539Z,20.07
2019-04-30T21:59:41.458Z,17.70
2019-04-30T22:02:10.392Z,18.93
2019-04-30T22:04:39.278Z,17.30
2019-04-30T22:07:09.404Z,17.47
2019-04-30T22:09:37.250Z,17.83
2019-04-30T22:15:35.138Z,16.87
2019-04-30T22:18:04.079Z,18.73
2019-04-30T22:20:33.026Z,19.57
2019-04-30T22:23:01.931Z,21.15
2019-04-30T22:25:30.905Z,21.80
2019-04-30T22:27:59.900Z,18.60
2019-04-30T22:30:28.780Z,17.43
2019-04-30T22:32:59.548Z,18.40
2019-04-30T22:35:46.898Z,17.23
2019-04-30T22:38:18.958Z,17.73
2019-04-30T22:40:45.930Z,18.03
2019-04-30T22:43:14.829Z,18.33
2019-04-30T22:45:53.212Z,16.63
2019-04-30T22:48:22.144Z,18.47
2019-04-30T22:50:51.082Z,18.27
2019-04-30T22:53:19.988Z,18.87
2019-04-30T22:55:48.917Z,18.60
2019-04-30T22:58:17.837Z,18.50
2019-04-30T23:00:46.763Z,18.17
2019-04-30T23:03:23.000Z,19.70
2019-04-30T23:05:51.933Z,18.57
2019-04-30T23:08:20.851Z,19.13
2019-04-30T23:10:49.771Z,20.80
2019-04-30T23:13:18.699Z,18.83
2019-04-30T23:15:48.102Z,16.43
2019-04-30T23:18:17.086Z,17.00
2019-04-30T23:20:45.936Z,21.02
2019-04-30T23:23:14.855Z,18.23
2019-04-30T23:25:43.752Z,18.73
2019-04-30T23:28:12.680Z,19.30
2019-04-30T23:30:41.618Z,18.67
2019-04-30T23:33:10.544Z,18.97
2019-04-30T23:35:39.473Z,22.20
2019-04-30T23:38:08.377Z,17.97
2019-04-30T23:40:47.853Z,19.40
2019-04-30T23:43:16.710Z,16.83
2019-04-30T23:45:45.674Z,16.47
2019-04-30T23:48:14.591Z,17.00
2019-04-30T23:50:43.533Z,16.73
2019-04-30T23:53:12.413Z,17.17
2019-04-30T23:55:41.401Z,19.73
2019-04-30T23:58:10.231Z,17.50
